Time;durP1;ratioP1;P1;durP2;ratioP2;P2;SDS_P1;SDS_P2;PMS_P1;PMS_P2;Temp;Humidity;BMP_temperature;BMP_pressure;BME280_temperature;BME280_humidity;BME280_pressure;Samples;Min_cycle;Max_cycle;Signal;HPM_P1;HPM_P2
2021/09/17 00:01:52;;;;;;;35.08;23.62;;;;;;;16.52;97.03;94341.03;1622165;88;21514;-63
2021/09/17 00:04:19;;;;;;;35.83;24.95;;;;;;;16.49;96.98;94346.16;1624749;87;21679;-64
2021/09/17 00:06:46;;;;;;;40.60;25.52;;;;;;;16.47;97.43;94354.23;1622208;88;21168;-65
2021/09/17 00:09:15;;;;;;;42.33;28.05;;;;;;;16.48;97.63;94349.58;1623479;87;20978;-65
2021/09/17 00:11:43;;;;;;;38.35;26.12;;;;;;;16.50;97.81;94343.52;1624060;88;21455;-64
2021/09/17 00:14:12;;;;;;;30.12;22.93;;;;;;;16.53;98.04;94347.46;1624683;88;21011;-65
2021/09/17 00:16:39;;;;;;;31.30;20.25;;;;;;;16.57;97.96;94319.47;1621832;88;21116;-64
2021/09/17 00:19:07;;;;;;;33.35;24.12;;;;;;;16.62;98.07;94318.73;1624438;88;21161;-65
2021/09/17 00:21:34;;;;;;;32.60;23.32;;;;;;;16.64;98.33;94316.22;1622330;88;21010;-64
2021/09/17 00:24:03;;;;;;;29.75;19.65;;;;;;;16.66;98.15;94315.86;1620296;88;21027;-64
2021/09/17 00:26:29;;;;;;;36.15;21.05;;;;;;;16.68;97.98;94320.29;1620926;88;21082;-64
2021/09/17 00:28:56;;;;;;;25.43;18.80;;;;;;;16.66;97.90;94308.15;1622111;88;21018;-64
2021/09/17 00:31:23;;;;;;;32.15;20.37;;;;;;;16.65;98.12;94312.95;1624605;88;21122;-64
2021/09/17 00:33:49;;;;;;;28.90;20.40;;;;;;;16.69;98.31;94310.70;1619931;87;21074;-63
2021/09/17 00:36:16;;;;;;;28.50;19.45;;;;;;;16.71;98.38;94300.49;1622364;88;20987;-64
2021/09/17 00:38:43;;;;;;;25.30;17.55;;;;;;;16.73;98.42;94286.86;1622262;88;21236;-65
2021/09/17 00:41:11;;;;;;;26.57;17.55;;;;;;;16.73;98.12;94276.49;1618175;87;21689;-66
2021/09/17 00:43:39;;;;;;;23.52;18.30;;;;;;;16.73;98.09;94277.89;1618367;87;21014;-63
2021/09/17 00:46:06;;;;;;;26.95;16.02;;;;;;;16.71;98.05;94271.33;1620701;88;21432;-66
2021/09/17 00:48:34;;;;;;;18.30;13.13;;;;;;;16.72;98.24;94247.84;1622661;88;21562;-66
2021/09/17 00:51:01;;;;;;;28.30;13.50;;;;;;;16.76;98.48;94240.02;1625043;88;21027;-64
2021/09/17 00:53:33;;;;;;;13.35;9.90;;;;;;;16.78;98.06;94237.50;1622467;87;20971;-64
2021/09/17 00:55:58;;;;;;;19.70;10.15;;;;;;;16.81;98.17;94246.22;1622712;87;21423;-64
2021/09/17 00:58:24;;;;;;;17.02;9.75;;;;;;;16.81;97.73;94247.61;1601215;88;22197;-63
2021/09/17 01:00:51;;;;;;;13.98;9.15;;;;;;;16.82;97.51;94238.02;1621063;88;21078;-65
2021/09/17 01:03:17;;;;;;;13.32;7.65;;;;;;;16.82;97.18;94228.30;1621181;87;21129;-65
2021/09/17 01:05:44;;;;;;;12.82;7.78;;;;;;;16.81;96.78;94236.50;1618202;88;21117;-64
2021/09/17 01:08:11;;;;;;;18.48;8.43;;;;;;;16.75;96.55;94231.56;1623772;88;22001;-65
2021/09/17 01:10:40;;;;;;;11.25;7.12;;;;;;;16.72;96.78;94228.39;1625142;88;21078;-65
2021/09/17 01:13:06;;;;;;;11.18;6.35;;;;;;;16.71;96.79;94219.94;1621660;88;21062;-64
2021/09/17 01:15:35;;;;;;;14.00;7.75;;;;;;;16.71;96.60;94210.95;1620105;87;21118;-65
2021/09/17 01:18:01;;;;;;;20.23;14.10;;;;;;;16.70;96.42;94201.11;1622008;88;21149;-65
2021/09/17 01:20:30;;;;;;;24.85;14.83;;;;;;;16.65;96.19;94202.47;1622542;88;21588;-64
2021/09/17 01:22:58;;;;;;;21.87;14.05;;;;;;;16.56;96.50;94192.97;1619618;88;20986;-65
2021/09/17 01:25:25;;;;;;;22.85;11.43;;;;;;;16.53;96.81;94185.64;1621971;88;21546;-64
2021/09/17 01:27:53;;;;;;;17.85;12.60;;;;;;;16.54;96.87;94184.39;1623524;88;21117;-64
2021/09/17 01:30:21;;;;;;;22.00;13.30;;;;;;;16.49;96.62;94195.59;1616963;88;21109;-64
2021/09/17 01:32:47;;;;;;;24.90;13.85;;;;;;;16.44;96.85;94184.45;1625267;88;22842;-63
2021/09/17 01:35:17;;;;;;;15.20;9.78;;;;;;;16.41;97.20;94184.06;1620846;87;21006;-66
2021/09/17 01:37:44;;;;;;;17.77;12.00;;;;;;;16.42;97.26;94175.87;1619052;88;21101;-65
2021/09/17 01:40:12;;;;;;;22.75;13.93;;;;;;;16.42;97.42;94175.87;1617461;88;21022;-63
2021/09/17 01:42:39;;;;;;;23.77;14.90;;;;;;;16.41;97.47;94175.73;1619559;88;20970;-64
2021/09/17 01:45:07;;;;;;;20.85;14.05;;;;;;;16.38;97.70;94180.26;1620147;88;21828;-64
2021/09/17 01:47:34;;;;;;;19.23;11.30;;;;;;;16.38;97.84;94167.77;1619850;88;21502;-64
2021/09/17 01:50:00;;;;;;;19.85;14.28;;;;;;;16.38;97.64;94162.21;1617745;88;21031;-64
2021/09/17 01:52:28;;;;;;;23.25;14.60;;;;;;;16.36;97.45;94169.54;1618452;88;21034;-63
2021/09/17 01:54:54;;;;;;;20.08;13.30;;;;;;;16.33;97.86;94164.31;1622403;87;21062;-66
2021/09/17 01:57:22;;;;;;;16.75;11.88;;;;;;;16.34;97.89;94156.76;1621568;88;21047;-65
2021/09/17 01:59:49;;;;;;;25.32;10.85;;;;;;;16.32;97.86;94151.69;1619870;88;21023;-65
2021/09/17 02:02:15;;;;;;;18.95;12.25;;;;;;;16.32;97.83;94148.14;1621482;88;20990;-64
2021/09/17 02:04:42;;;;;;;16.20;11.25;;;;;;;16.28;97.95;94140.07;1621804;88;21102;-65
2021/09/17 02:07:09;;;;;;;18.37;11.78;;;;;;;16.27;97.69;94146.75;1620419;88;21530;-65
2021/09/17 02:09:38;;;;;;;16.77;11.18;;;;;;;16.21;97.68;94132.07;1618358;88;21185;-64
2021/09/17 02:12:07;;;;;;;16.93;10.28;;;;;;;16.19;97.96;94131.81;1622351;88;21023;-63
2021/09/17 02:14:35;;;;;;;17.57;12.07;;;;;;;16.16;98.00;94125.26;1621819;88;20986;-65
2021/09/17 02:17:02;;;;;;;18.50;12.53;;;;;;;16.13;97.87;94129.00;1619332;88;21483;-64
2021/09/17 02:19:28;;;;;;;11.30;9.48;;;;;;;16.09;97.88;94122.20;1621204;87;21109;-64
2021/09/17 02:21:56;;;;;;;20.55;10.53;;;;;;;16.06;97.96;94119.77;1625339;88;21420;-64
2021/09/17 02:24:24;;;;;;;13.72;8.88;;;;;;;16.00;98.04;94120.38;1620146;88;21011;-64
2021/09/17 02:26:51;;;;;;;17.57;11.85;;;;;;;15.96;98.32;94121.25;1622069;88;21428;-65
2021/09/17 02:29:19;;;;;;;17.17;11.95;;;;;;;15.93;98.86;94113.90;1620641;88;20999;-64
2021/09/17 02:31:46;;;;;;;16.62;11.65;;;;;;;15.96;99.48;94108.00;1624242;88;21023;-63
2021/09/17 02:34:12;;;;;;;17.90;11.57;;;;;;;15.99;99.51;94107.77;1623499;88;21799;-64
2021/09/17 02:36:39;;;;;;;16.27;10.45;;;;;;;16.01;99.14;94095.54;1620432;88;20983;-64
2021/09/17 02:39:06;;;;;;;15.08;10.10;;;;;;;16.03;99.20;94097.19;1622177;88;21444;-64
2021/09/17 02:41:33;;;;;;;15.13;10.13;;;;;;;16.06;99.30;94088.50;1625980;87;21115;-64
2021/09/17 02:44:00;;;;;;;16.90;9.10;;;;;;;16.09;99.40;94091.02;1621074;87;21617;-64
2021/09/17 02:46:27;;;;;;;13.48;8.80;;;;;;;16.12;99.37;94094.83;1623802;88;21211;-64
2021/09/17 02:48:55;;;;;;;13.38;8.80;;;;;;;16.13;98.82;94092.19;1626155;88;20978;-65
2021/09/17 02:51:21;;;;;;;15.43;9.95;;;;;;;16.08;98.50;94085.98;1623953;88;21023;-65
2021/09/17 02:53:48;;;;;;;14.98;9.95;;;;;;;16.01;98.48;94078.13;1625753;88;20994;-64
2021/09/17 02:56:16;;;;;;;16.93;9.90;;;;;;;15.96;99.02;94081.02;1623489;88;21010;-64
2021/09/17 02:58:43;;;;;;;13.38;9.58;;;;;;;15.98;99.31;94081.28;1620733;88;21156;-63
2021/09/17 03:01:10;;;;;;;17.00;10.23;;;;;;;15.99;99.13;94079.25;1619880;88;21061;-63
2021/09/17 03:03:37;;;;;;;15.35;11.30;;;;;;;15.97;98.98;94082.54;1618232;88;21043;-65
2021/09/17 03:06:05;;;;;;;16.67;10.95;;;;;;;15.98;99.06;94087.45;1621644;87;20990;-65
2021/09/17 03:08:32;;;;;;;12.95;9.48;;;;;;;15.96;99.03;94082.41;1623231;87;21561;-65
2021/09/17 03:11:00;;;;;;;14.98;9.48;;;;;;;15.94;99.21;94080.73;1621145;88;21165;-64
2021/09/17 03:13:28;;;;;;;18.17;9.60;;;;;;;15.96;99.35;94081.64;1619113;88;21081;-64
2021/09/17 03:15:55;;;;;;;13.35;10.68;;;;;;;15.96;99.38;94084.41;1620613;87;21009;-65
2021/09/17 03:18:23;;;;;;;12.35;9.63;;;;;;;15.96;99.45;94085.19;1620977;88;21063;-64
2021/09/17 03:20:53;;;;;;;14.30;9.63;;;;;;;15.98;99.43;94079.89;1622716;88;46408;-65
2021/09/17 03:23:22;;;;;;;10.80;8.15;;;;;;;16.00;99.38;94080.16;1620325;87;21240;-64
2021/09/17 03:25:49;;;;;;;15.00;9.73;;;;;;;16.00;99.05;94074.61;1620429;88;21082;-64
2021/09/17 03:28:16;;;;;;;12.82;9.83;;;;;;;16.02;99.38;94081.02;1619478;87;21529;-65
2021/09/17 03:30:43;;;;;;;12.93;9.58;;;;;;;16.08;99.70;94083.22;1623155;88;20998;-65
2021/09/17 03:33:11;;;;;;;12.98;8.93;;;;;;;16.09;99.38;94084.73;1622894;88;21061;-64
2021/09/17 03:35:39;;;;;;;12.60;8.40;;;;;;;16.13;99.12;94082.47;1621889;88;21301;-65
2021/09/17 03:38:06;;;;;;;13.72;9.28;;;;;;;16.14;98.91;94079.20;1621008;88;20982;-65
2021/09/17 03:40:35;;;;;;;10.63;9.08;;;;;;;16.14;98.57;94076.44;1618034;88;21494;-65
2021/09/17 03:43:02;;;;;;;16.50;9.90;;;;;;;16.11;98.70;94080.18;1622453;87;21497;-66
2021/09/17 03:45:32;;;;;;;10.80;8.65;;;;;;;16.14;98.97;94070.11;1626321;88;21086;-65
2021/09/17 03:48:05;;;;;;;11.83;8.53;;;;;;;16.16;98.73;94073.14;1625833;88;21117;-65
2021/09/17 03:50:32;;;;;;;13.45;9.30;;;;;;;16.17;98.60;94068.49;1622440;87;21066;-65
2021/09/17 03:52:59;;;;;;;17.82;11.68;;;;;;;16.16;98.32;94068.37;1628612;88;20978;-65
2021/09/17 03:55:27;;;;;;;13.58;9.18;;;;;;;16.12;98.33;94071.24;1619350;87;21133;-63
2021/09/17 03:57:54;;;;;;;11.40;8.10;;;;;;;16.08;98.31;94074.89;1624349;88;21022;-65
2021/09/17 04:00:21;;;;;;;13.32;8.88;;;;;;;16.05;98.65;94075.25;1620223;88;21165;-65
2021/09/17 04:02:48;;;;;;;16.32;12.50;;;;;;;16.06;98.67;94076.02;1618970;87;20990;-65
2021/09/17 04:05:15;;;;;;;20.00;12.70;;;;;;;16.02;98.47;94073.47;1622158;88;21201;-65
2021/09/17 04:07:42;;;;;;;21.80;15.45;;;;;;;15.98;98.72;94074.34;1624702;88;21030;-64
2021/09/17 04:10:13;;;;;;;25.80;16.00;;;;;;;15.99;99.16;94072.31;1620200;88;20987;-65
2021/09/17 04:12:41;;;;;;;20.68;13.45;;;;;;;16.03;99.23;94070.83;1621098;87;21154;-65
2021/09/17 04:15:11;;;;;;;29.92;19.45;;;;;;;16.05;99.05;94073.09;1621375;87;21486;-65
2021/09/17 04:17:37;;;;;;;39.65;26.97;;;;;;;16.10;99.39;94073.76;1621242;88;20987;-64
2021/09/17 04:20:07;;;;;;;22.70;12.90;;;;;;;16.14;99.30;94072.27;1620691;87;21038;-65
2021/09/17 04:22:35;;;;;;;17.92;10.85;;;;;;;16.19;98.75;94072.14;1622304;88;20982;-65
2021/09/17 04:25:06;;;;;;;18.60;11.78;;;;;;;16.15;98.26;94064.08;1619986;88;21101;-64
2021/09/17 04:27:35;;;;;;;19.85;11.75;;;;;;;16.16;98.26;94066.98;1618344;88;21028;-63
2021/09/17 04:30:03;;;;;;;17.75;10.10;;;;;;;16.12;98.15;94067.83;1624064;87;21105;-64
2021/09/17 04:32:30;;;;;;;21.37;11.33;;;;;;;16.09;98.22;94063.27;1619511;88;21105;-63
2021/09/17 04:34:56;;;;;;;17.27;11.48;;;;;;;16.05;98.29;94050.89;1620659;88;21609;-65
2021/09/17 04:37:22;;;;;;;16.62;11.93;;;;;;;16.04;98.55;94050.14;1626581;87;21140;-63
2021/09/17 04:39:49;;;;;;;26.07;13.32;;;;;;;16.04;98.51;94056.31;1621505;88;21593;-65
2021/09/17 04:42:16;;;;;;;19.10;12.90;;;;;;;15.99;98.59;94061.98;1623963;88;20970;-65
2021/09/17 04:44:43;;;;;;;22.10;13.50;;;;;;;15.96;98.71;94062.98;1623965;88;21026;-63
2021/09/17 04:47:10;;;;;;;22.32;13.48;;;;;;;15.97;99.19;94056.80;1626295;88;20994;-64
2021/09/17 04:49:36;;;;;;;20.00;12.98;;;;;;;16.04;99.47;94055.70;1623684;88;21242;-64
2021/09/17 04:52:05;;;;;;;20.50;13.20;;;;;;;16.08;99.11;94045.11;1623054;88;21018;-64
2021/09/17 04:54:31;;;;;;;18.90;11.05;;;;;;;16.10;98.69;94048.14;1621928;88;21554;-64
2021/09/17 04:57:01;;;;;;;21.33;12.25;;;;;;;16.10;98.70;94049.53;1624893;87;21010;-65
2021/09/17 04:59:28;;;;;;;23.00;12.75;;;;;;;16.16;98.93;94051.71;1618887;88;21459;-63
2021/09/17 05:01:55;;;;;;;29.80;19.82;;;;;;;16.23;98.73;94051.22;1617526;88;21255;-64
2021/09/17 05:04:21;;;;;;;29.25;18.73;;;;;;;16.25;98.24;94055.64;1617607;88;21597;-65
2021/09/17 05:06:48;;;;;;;35.80;22.02;;;;;;;16.22;97.89;94059.42;1622216;87;20974;-65
2021/09/17 05:09:16;;;;;;;26.75;15.48;;;;;;;16.19;97.80;94060.42;1620712;87;21003;-65
2021/09/17 05:11:44;;;;;;;29.37;18.82;;;;;;;16.21;98.10;94055.13;1621682;87;21713;-65
2021/09/17 05:14:12;;;;;;;26.42;16.93;;;;;;;16.21;97.97;94060.68;1625823;88;21208;-64
2021/09/17 05:16:40;;;;;;;21.12;15.75;;;;;;;16.19;97.90;94056.87;1623176;88;21523;-66
2021/09/17 05:19:10;;;;;;;28.77;15.88;;;;;;;16.22;98.24;94053.88;1610751;88;21076;-65
2021/09/17 05:21:37;;;;;;;26.50;15.03;;;;;;;16.25;98.14;94062.58;1606339;88;21162;-65
2021/09/17 05:24:04;;;;;;;24.70;16.90;;;;;;;16.29;97.87;94064.48;1574037;90;21110;-65
2021/09/17 05:26:31;;;;;;;20.50;15.85;;;;;;;16.29;97.71;94057.54;1556699;91;21178;-66
2021/09/17 05:29:00;;;;;;;24.45;16.85;;;;;;;16.32;97.99;94063.47;1564879;91;21116;-63
2021/09/17 05:31:27;;;;;;;21.70;15.45;;;;;;;16.36;98.01;94073.12;1563334;91;21647;-65
2021/09/17 05:33:53;;;;;;;24.95;15.88;;;;;;;16.41;97.83;94065.45;1606127;88;21133;-64
2021/09/17 05:36:20;;;;;;;25.52;15.63;;;;;;;16.47;97.86;94066.22;1614485;89;21025;-68
2021/09/17 05:38:47;;;;;;;20.12;14.98;;;;;;;16.53;98.10;94061.42;1592693;88;21179;-69
2021/09/17 05:41:15;;;;;;;19.70;14.98;;;;;;;16.59;98.19;94064.99;1612998;88;20977;-69
2021/09/17 05:43:42;;;;;;;15.68;11.80;;;;;;;16.67;98.57;94060.45;1569247;90;21599;-68
2021/09/17 05:46:09;;;;;;;15.35;11.40;;;;;;;16.79;98.41;94062.61;1558242;92;21062;-68
2021/09/17 05:48:37;;;;;;;15.10;11.20;;;;;;;16.90;98.01;94054.30;1563781;90;21598;-68
2021/09/17 05:51:04;;;;;;;19.98;14.07;;;;;;;16.95;97.35;94050.76;1583122;88;21807;-66
2021/09/17 05:53:32;;;;;;;16.95;13.28;;;;;;;17.02;97.28;94046.84;1594100;88;21036;-68
2021/09/17 05:55:59;;;;;;;19.35;12.93;;;;;;;17.10;96.80;94049.88;1613855;88;21137;-69
2021/09/17 05:58:30;;;;;;;33.13;20.97;;;;;;;17.16;96.51;94042.28;1606934;88;21082;-68
2021/09/17 06:00:58;;;;;;;23.00;17.05;;;;;;;17.25;96.19;94035.84;1584516;89;21133;-69
2021/09/17 06:03:24;;;;;;;20.25;14.75;;;;;;;17.35;95.93;94034.35;1550626;90;21199;-63
2021/09/17 06:05:51;;;;;;;24.27;13.53;;;;;;;17.40;95.49;94032.80;1562375;90;21107;-69
2021/09/17 06:08:19;;;;;;;12.98;11.40;;;;;;;17.42;95.42;94031.05;1551569;90;21108;-65
2021/09/17 06:10:45;;;;;;;13.03;10.18;;;;;;;17.45;95.11;94035.59;1556686;90;21735;-66
2021/09/17 06:13:13;;;;;;;15.80;11.85;;;;;;;17.46;94.51;94041.27;1579634;89;21146;-71
2021/09/17 06:15:40;;;;;;;19.82;12.30;;;;;;;17.44;93.75;94040.28;1566149;88;22644;-65
2021/09/17 06:18:09;;;;;;;14.90;13.15;;;;;;;17.38;93.59;94031.94;1607387;88;21147;-66
2021/09/17 06:20:36;;;;;;;24.32;16.00;;;;;;;17.36;93.88;94034.47;1619501;86;22436;-63
2021/09/17 06:23:05;;;;;;;14.33;10.25;;;;;;;17.37;93.90;94035.22;1609774;87;21077;-67
2021/09/17 06:25:32;;;;;;;15.43;10.98;;;;;;;17.35;93.60;94034.97;1598939;87;21105;-67
2021/09/17 06:28:01;;;;;;;17.57;11.60;;;;;;;17.29;93.59;94025.86;1601112;88;21109;-66
2021/09/17 06:30:27;;;;;;;16.10;12.00;;;;;;;17.28;93.94;94029.26;1622051;87;21270;-67
2021/09/17 06:32:55;;;;;;;15.55;12.43;;;;;;;17.28;93.97;94021.56;1612833;87;21093;-64
2021/09/17 06:35:22;;;;;;;19.62;12.07;;;;;;;17.30;94.06;94016.25;1612824;87;21118;-59
2021/09/17 06:37:52;;;;;;;21.02;14.78;;;;;;;17.38;94.30;94020.05;1617750;86;21447;-66
2021/09/17 06:40:21;;;;;;;16.30;11.20;;;;;;;17.51;94.49;94018.27;1621798;87;21148;-63
2021/09/17 06:42:54;;;;;;;22.65;13.45;;;;;;;17.66;93.95;94020.76;1598419;87;21072;-63
2021/09/17 06:45:22;;;;;;;27.87;12.07;;;;;;;17.76;93.53;94016.41;1576340;90;21590;-64
2021/09/17 06:47:55;;;;;;;14.20;10.15;;;;;;;17.87;92.72;94012.22;1556390;90;21623;-64
2021/09/17 06:50:24;;;;;;;14.75;10.15;;;;;;;17.98;92.32;94013.58;1536367;91;21078;-65
2021/09/17 06:52:53;;;;;;;14.58;10.23;;;;;;;18.13;91.37;94008.55;1620034;87;21903;-65
2021/09/17 06:55:25;;;;;;;13.90;10.13;;;;;;;18.23;90.25;93997.25;1593497;87;21620;-61
2021/09/17 06:57:56;;;;;;;14.23;10.50;;;;;;;18.31;89.28;93998.23;1596973;87;21046;-60
2021/09/17 07:00:25;;;;;;;17.52;10.15;;;;;;;18.38;88.91;93999.09;1615125;85;21211;-72
2021/09/17 07:02:54;;;;;;;14.47;10.25;;;;;;;18.45;88.67;93998.53;1613962;86;21089;-62
2021/09/17 07:05:24;;;;;;;16.65;11.43;;;;;;;18.53;88.31;94002.30;1595976;88;21154;-63
2021/09/17 07:07:52;;;;;;;16.52;11.73;;;;;;;18.57;88.25;93997.83;1601549;88;21151;-60
2021/09/17 07:10:19;;;;;;;15.23;11.20;;;;;;;18.64;87.91;93995.25;1623869;87;21211;-63
2021/09/17 07:12:47;;;;;;;28.60;10.55;;;;;;;18.76;87.50;93998.08;1611874;86;21700;-60
2021/09/17 07:15:17;;;;;;;20.00;11.53;;;;;;;18.85;87.02;93997.01;1610023;87;21555;-61
2021/09/17 07:17:45;;;;;;;22.07;14.38;;;;;;;18.92;86.38;93994.42;1608319;88;21168;-60
2021/09/17 07:20:13;;;;;;;19.98;12.47;;;;;;;19.01;86.18;93993.34;1614680;88;21246;-61
2021/09/17 07:22:39;;;;;;;17.90;12.20;;;;;;;19.11;86.20;93992.48;1611226;87;21058;-61
2021/09/17 07:25:08;;;;;;;16.52;11.48;;;;;;;19.24;85.44;93994.68;1609553;87;21443;-63
2021/09/17 07:27:37;;;;;;;17.52;11.48;;;;;;;19.31;84.80;93983.71;1620517;86;21478;-62
2021/09/17 07:30:06;;;;;;;18.50;13.30;;;;;;;19.36;84.60;93980.75;1594310;88;21143;-64
2021/09/17 07:32:35;;;;;;;26.70;15.38;;;;;;;19.35;84.55;93980.64;1604354;88;21129;-65
2021/09/17 07:35:02;;;;;;;31.40;13.93;;;;;;;19.36;85.20;93978.70;1610269;87;21074;-63
2021/09/17 07:37:30;;;;;;;23.07;13.13;;;;;;;19.42;85.02;93987.80;1611018;87;21071;-62
2021/09/17 07:39:58;;;;;;;24.00;14.20;;;;;;;19.47;84.58;93983.42;1613230;86;21113;-61
2021/09/17 07:42:25;;;;;;;24.45;12.85;;;;;;;19.56;84.39;93985.22;1607954;86;22559;-63
2021/09/17 07:44:52;;;;;;;17.82;12.65;;;;;;;19.68;83.52;93983.84;1619497;86;21566;-65
2021/09/17 07:47:18;;;;;;;20.20;11.85;;;;;;;19.70;83.07;93988.25;1609396;86;21807;-63
2021/09/17 07:49:46;;;;;;;20.62;12.45;;;;;;;19.72;82.66;93981.50;1612160;87;21070;-62
2021/09/17 07:52:13;;;;;;;20.20;14.23;;;;;;;19.78;83.12;93973.81;1623963;86;21114;-64
2021/09/17 07:54:41;;;;;;;17.70;13.25;;;;;;;19.86;83.81;93966.38;1613526;87;21225;-62
2021/09/17 07:57:07;;;;;;;18.32;13.70;;;;;;;19.97;83.60;93969.05;1581104;89;21139;-63
2021/09/17 07:59:34;;;;;;;15.50;11.10;;;;;;;20.09;83.79;93964.84;1564001;89;21145;-64
2021/09/17 08:02:02;;;;;;;17.42;10.75;;;;;;;20.18;83.69;93949.86;1561465;89;21073;-68
2021/09/17 08:04:28;;;;;;;21.55;12.18;;;;;;;20.25;83.31;93946.48;1553895;90;21073;-67
2021/09/17 08:06:55;;;;;;;18.23;13.48;;;;;;;20.27;83.28;93954.31;1562452;90;21161;-67
2021/09/17 08:09:26;;;;;;;16.62;11.78;;;;;;;20.27;82.45;93954.31;1551698;90;21050;-69
2021/09/17 08:11:53;;;;;;;22.65;14.70;;;;;;;20.20;81.39;93952.88;1618953;86;21125;-68
2021/09/17 08:14:20;;;;;;;17.62;12.43;;;;;;;20.11;81.08;93953.89;1608670;87;21237;-67
2021/09/17 08:16:49;;;;;;;17.32;11.22;;;;;;;20.04;81.03;93956.52;1598821;87;21124;-67
2021/09/17 08:19:17;;;;;;;20.08;14.80;;;;;;;19.99;81.11;93957.33;1602745;88;21110;-66
2021/09/17 08:21:44;;;;;;;24.07;13.43;;;;;;;19.92;81.26;93954.48;1569032;90;21564;-66
2021/09/17 08:24:16;;;;;;;26.48;15.32;;;;;;;19.89;81.51;93949.96;1585922;89;21241;-66
2021/09/17 08:26:47;;;;;;;21.80;14.53;;;;;;;19.88;81.45;93954.03;1590718;89;21095;-66
2021/09/17 08:29:15;;;;;;;26.93;17.62;;;;;;;19.84;81.59;93950.80;1553604;91;21556;-64
2021/09/17 08:31:42;;;;;;;19.42;16.15;;;;;;;19.90;82.64;93944.48;1608497;87;21158;-64
2021/09/17 08:34:09;;;;;;;37.95;28.67;;;;;;;19.99;82.69;93948.95;1594352;89;22424;-61
2021/09/17 08:36:40;;;;;;;43.17;27.87;;;;;;;20.00;83.34;93941.45;1605939;89;21135;-62
2021/09/17 08:39:08;;;;;;;27.77;17.37;;;;;;;20.04;82.94;93937.75;1613618;88;21069;-67
2021/09/17 08:41:36;;;;;;;32.93;20.55;;;;;;;20.10;82.56;93926.51;1604016;88;21208;-66
2021/09/17 08:44:05;;;;;;;29.98;18.12;;;;;;;20.17;82.47;93931.59;1611187;88;21116;-60
2021/09/17 08:46:34;;;;;;;28.02;20.37;;;;;;;20.27;82.58;93932.73;1621757;86;21055;-68
2021/09/17 08:49:03;;;;;;;16.93;13.80;;;;;;;20.35;81.95;93928.70;1611944;87;21121;-70
2021/09/17 08:51:31;;;;;;;19.55;12.78;;;;;;;20.44;81.26;93931.09;1607455;87;21171;-68
2021/09/17 08:54:01;;;;;;;18.05;12.07;;;;;;;20.46;79.80;93928.52;1614903;87;21125;-68
2021/09/17 08:56:26;;;;;;;22.25;14.00;;;;;;;20.51;79.62;93919.28;1608997;86;21908;-69
2021/09/17 08:58:55;;;;;;;21.00;14.23;;;;;;;20.57;79.85;93915.78;1619250;87;21070;-71
2021/09/17 09:01:30;;;;;;;19.23;13.60;;;;;;;20.64;79.85;93920.74;1619230;87;21201;-69
2021/09/17 09:04:02;;;;;;;21.37;16.02;;;;;;;20.66;78.93;93922.36;1594225;86;21167;-70
2021/09/17 09:06:39;;;;;;;20.43;14.15;;;;;;;20.65;79.14;93912.47;1601306;87;21106;-66
2021/09/17 09:09:19;;;;;;;16.45;13.48;;;;;;;20.61;78.85;93908.61;1625537;86;21178;-66
2021/09/17 09:11:50;;;;;;;37.28;33.13;;;;;;;20.58;78.53;93908.91;1617841;87;21118;-67
2021/09/17 09:14:18;;;;;;;34.30;28.52;;;;;;;20.52;78.76;93911.78;1613244;87;21076;-61
2021/09/17 09:16:49;;;;;;;21.17;18.62;;;;;;;20.54;79.00;93914.05;1615807;87;22249;-61
2021/09/17 09:19:19;;;;;;;24.65;17.00;;;;;;;20.56;79.54;93908.69;1621794;87;21042;-62
2021/09/17 09:21:47;;;;;;;26.30;16.48;;;;;;;20.53;80.40;93908.36;1618730;88;21149;-65
2021/09/17 09:24:23;;;;;;;30.85;22.48;;;;;;;20.53;81.13;93905.56;1615383;86;21044;-66
2021/09/17 09:27:16;;;;;;;28.73;21.82;;;;;;;20.51;81.92;93903.91;1620414;87;21086;-67
2021/09/17 09:29:51;;;;;;;24.35;19.50;;;;;;;20.54;82.67;93908.47;1615261;86;21632;-65
2021/09/17 09:32:33;;;;;;;28.80;23.18;;;;;;;20.49;83.40;93901.67;1608258;87;21589;-63
2021/09/17 09:35:04;;;;;;;20.68;15.55;;;;;;;20.43;84.21;93906.59;1621021;86;21157;-65
2021/09/17 09:37:36;;;;;;;20.35;15.63;;;;;;;20.43;84.90;93913.58;1620602;86;21078;-64
2021/09/17 09:40:09;;;;;;;25.52;16.73;;;;;;;20.41;84.88;93910.54;1610261;87;21498;-64
2021/09/17 09:42:44;;;;;;;19.92;13.90;;;;;;;20.38;84.76;93917.84;1612656;87;21015;-64
2021/09/17 09:45:20;;;;;;;25.55;12.50;;;;;;;20.31;84.95;93917.81;1615629;88;21117;-65
2021/09/17 09:47:55;;;;;;;14.83;11.38;;;;;;;20.29;85.47;93912.00;1592805;88;21394;-61
2021/09/17 09:50:29;;;;;;;18.45;11.20;;;;;;;20.25;86.34;93911.56;1606552;87;21150;-61
2021/09/17 09:53:03;;;;;;;20.08;17.25;;;;;;;20.25;86.88;93912.19;1598918;88;21129;-63
2021/09/17 09:55:28;;;;;;;18.07;14.25;;;;;;;20.25;87.51;93914.35;1610997;87;21420;-61
2021/09/17 09:57:56;;;;;;;13.08;10.65;;;;;;;20.25;87.59;93913.59;1618549;88;21658;-61
2021/09/17 10:00:23;;;;;;;13.43;10.55;;;;;;;20.25;87.46;93909.39;1616217;88;21138;-62
2021/09/17 10:02:50;;;;;;;14.58;12.30;;;;;;;20.28;87.26;93905.54;1617503;87;21062;-62
2021/09/17 10:05:25;;;;;;;17.73;13.05;;;;;;;20.30;86.96;93912.12;1622913;86;21158;-62
2021/09/17 10:07:49;;;;;;;18.57;13.62;;;;;;;20.30;86.11;93903.73;1611636;86;21148;-60
2021/09/17 10:10:15;;;;;;;19.02;13.48;;;;;;;20.31;85.71;93901.68;1583705;86;21121;-60
2021/09/17 10:12:44;;;;;;;13.58;9.85;;;;;;;20.26;86.04;93896.94;1614144;86;21287;-61
2021/09/17 10:15:12;;;;;;;15.75;11.85;;;;;;;20.18;86.64;93895.39;1583044;89;21090;-62
2021/09/17 10:17:39;;;;;;;15.68;12.70;;;;;;;20.13;87.28;93899.66;1594155;88;21091;-61
2021/09/17 10:20:08;;;;;;;21.65;14.38;;;;;;;20.07;87.80;93898.98;1603580;88;21164;-61
2021/09/17 10:22:44;;;;;;;15.15;11.83;;;;;;;20.01;88.32;93897.52;1594692;88;21597;-60
2021/09/17 10:25:23;;;;;;;19.30;10.70;;;;;;;19.98;88.93;93895.16;1595850;89;21003;-60
2021/09/17 10:28:11;;;;;;;21.60;13.50;;;;;;;19.93;89.49;93893.17;1599586;88;21115;-61
2021/09/17 10:30:41;;;;;;;19.52;14.73;;;;;;;19.90;89.76;93892.84;1600881;88;21043;-61
2021/09/17 10:33:27;;;;;;;16.27;12.85;;;;;;;19.87;90.20;93895.92;1614176;87;21074;-62
2021/09/17 10:35:54;;;;;;;19.75;14.40;;;;;;;19.86;90.43;93894.41;1624184;88;21177;-60
2021/09/17 10:38:27;;;;;;;21.55;13.35;;;;;;;19.88;90.35;93895.41;1623294;88;21109;-60
2021/09/17 10:41:03;;;;;;;20.23;15.83;;;;;;;19.90;90.40;93893.49;1628125;87;21442;-65
2021/09/17 10:43:46;;;;;;;19.10;15.38;;;;;;;19.87;90.75;93884.75;1626367;87;21521;-65
2021/09/17 10:46:31;;;;;;;21.00;15.95;;;;;;;19.87;91.21;93881.33;1629954;87;21080;-67
2021/09/17 10:48:59;;;;;;;21.75;14.90;;;;;;;19.86;91.62;93884.02;1628927;87;21272;-65
2021/09/17 10:51:39;;;;;;;18.25;14.38;;;;;;;19.88;91.82;93878.66;1631173;87;21205;-67
2021/09/17 10:54:12;;;;;;;20.88;15.32;;;;;;;19.91;92.00;93881.05;1625187;87;22171;-63
2021/09/17 10:56:54;;;;;;;22.25;16.42;;;;;;;19.93;91.84;93877.08;1606625;88;21067;-65
2021/09/17 10:59:25;;;;;;;19.03;15.67;;;;;;;19.90;92.03;93876.09;1605374;87;21185;-68
2021/09/17 11:02:03;;;;;;;18.42;13.70;;;;;;;19.89;92.21;93882.95;1588087;88;22261;-66
2021/09/17 11:04:33;;;;;;;18.60;14.00;;;;;;;19.90;92.48;93883.06;1617961;87;21157;-62
2021/09/17 11:07:26;;;;;;;17.98;13.15;;;;;;;19.95;92.16;93870.33;1628557;87;20977;-64
2021/09/17 11:09:55;;;;;;;16.07;12.58;;;;;;;19.92;92.15;93872.13;1626255;86;21097;-64
2021/09/17 11:12:33;;;;;;;14.70;10.50;;;;;;;19.88;92.26;93863.30;1632068;87;21057;-66
2021/09/17 11:15:16;;;;;;;15.60;13.10;;;;;;;19.89;92.13;93867.59;1615824;87;21049;-64
2021/09/17 11:17:53;;;;;;;16.77;12.25;;;;;;;19.90;92.41;93862.12;1622524;87;21816;-67
2021/09/17 11:20:25;;;;;;;13.08;11.73;;;;;;;19.96;92.62;93860.66;1620178;87;22434;-65
2021/09/17 11:23:01;;;;;;;12.28;10.98;;;;;;;19.99;92.43;93854.02;1621217;86;21570;-66
2021/09/17 11:25:41;;;;;;;12.07;10.15;;;;;;;19.99;92.60;93847.80;1625340;87;21052;-61
2021/09/17 11:28:28;;;;;;;15.15;9.53;;;;;;;20.00;92.35;93848.54;1615907;86;21008;-68